createdAt,value
2019-03-22T00:00:34.351Z,84.51
2019-03-22T00:05:38.739Z,83.50
2019-03-22T00:10:43.123Z,83.89
2019-03-22T00:15:47.588Z,83.85
2019-03-22T00:20:51.952Z,83.96
2019-03-22T00:25:56.294Z,84.37
2019-03-22T00:31:00.668Z,85.03
2019-03-22T00:36:05.215Z,84.65
2019-03-22T00:41:09.570Z,85.09
2019-03-22T00:46:13.964Z,86.10
2019-03-22T00:51:18.335Z,86.24
2019-03-22T00:56:22.693Z,87.12
2019-03-22T01:01:27.243Z,84.97
2019-03-22T01:06:31.591Z,85.53
2019-03-22T01:11:36.145Z,86.48
2019-03-22T01:16:40.663Z,86.17
2019-03-22T01:21:45.693Z,86.73
2019-03-22T01:26:50.077Z,86.21
2019-03-22T01:31:54.594Z,86.22
2019-03-22T01:36:58.979Z,85.93
2019-03-22T01:42:03.419Z,85.47
2019-03-22T01:47:07.765Z,86.44
2019-03-22T01:52:12.154Z,87.70
2019-03-22T01:57:16.626Z,88.10
2019-03-22T02:02:20.975Z,86.85
2019-03-22T02:07:25.346Z,86.54
2019-03-22T02:12:29.692Z,86.67
2019-03-22T02:17:34.064Z,86.37
2019-03-22T02:22:38.487Z,86.56
2019-03-22T02:27:43.201Z,86.56
2019-03-22T02:32:47.578Z,87.53
2019-03-22T02:37:51.919Z,87.06
2019-03-22T02:42:56.392Z,86.56
2019-03-22T02:48:00.743Z,87.84
2019-03-22T02:53:05.099Z,87.70
2019-03-22T02:58:20.570Z,88.18
2019-03-22T03:03:15.587Z,87.36
2019-03-22T03:08:19.926Z,87.43
2019-03-22T03:13:24.309Z,88.00
2019-03-22T03:18:28.659Z,86.96
2019-03-22T03:23:33.026Z,88.08
2019-03-22T03:28:37.716Z,88.61
2019-03-22T03:33:42.249Z,87.34
2019-03-22T03:38:46.588Z,88.37
2019-03-22T03:43:50.950Z,88.73
2019-03-22T03:48:55.325Z,88.57
2019-03-22T03:53:59.723Z,89.24
2019-03-22T03:59:04.082Z,89.04
2019-03-22T04:04:08.475Z,89.16
2019-03-22T04:09:12.827Z,88.84
2019-03-22T04:14:17.210Z,89.66
2019-03-22T04:19:21.585Z,89.80
2019-03-22T04:24:26.005Z,89.83
2019-03-22T04:29:30.368Z,88.71
2019-03-22T04:34:34.783Z,89.40
2019-03-22T04:39:39.164Z,87.57
2019-03-22T04:44:43.553Z,89.67
2019-03-22T04:49:48.797Z,89.48
2019-03-22T04:54:54.870Z,88.92
2019-03-22T04:59:59.537Z,89.08
2019-03-22T05:05:05.022Z,90.40
2019-03-22T05:10:11.143Z,90.36
2019-03-22T05:15:17.187Z,90.24
2019-03-22T05:20:23.390Z,90.62
2019-03-22T05:25:28.009Z,88.71
2019-03-22T05:30:53.595Z,88.27
2019-03-22T05:35:58.136Z,88.36
2019-03-22T05:41:02.528Z,88.30
2019-03-22T05:46:06.879Z,87.27
2019-03-22T05:51:12.298Z,85.79
2019-03-22T05:56:16.711Z,85.42
2019-03-22T06:01:21.070Z,84.73
2019-03-22T06:06:25.451Z,82.81
2019-03-22T06:11:29.823Z,82.28
2019-03-22T06:16:34.198Z,82.86
2019-03-22T06:21:38.593Z,81.15
2019-03-22T06:26:42.950Z,82.70
2019-03-22T06:31:47.329Z,81.54
2019-03-22T06:36:51.710Z,80.10
2019-03-22T06:41:56.129Z,80.27
2019-03-22T06:47:00.582Z,79.48
2019-03-22T06:52:05.018Z,78.03
2019-03-22T06:57:09.462Z,75.47
2019-03-22T07:02:13.852Z,74.30
2019-03-22T07:07:18.359Z,75.05
2019-03-22T07:12:22.715Z,73.04
2019-03-22T07:17:27.071Z,73.57
2019-03-22T07:22:31.555Z,74.16
2019-03-22T07:27:35.898Z,73.87
2019-03-22T07:32:40.263Z,71.08
2019-03-22T07:37:44.632Z,71.46
2019-03-22T07:42:49.063Z,72.06
2019-03-22T07:47:55.819Z,71.03
2019-03-22T07:52:59.525Z,69.80
2019-03-22T07:58:03.956Z,70.86
2019-03-22T08:03:08.337Z,70.48
2019-03-22T08:08:12.693Z,68.97
2019-03-22T08:13:17.055Z,69.30
2019-03-22T08:18:21.442Z,69.94
2019-03-22T08:23:25.808Z,68.44
2019-03-22T08:28:30.210Z,69.01
2019-03-22T08:33:34.768Z,69.39
2019-03-22T08:38:39.134Z,69.39
2019-03-22T08:43:43.488Z,68.63
2019-03-22T08:48:47.851Z,68.70
2019-03-22T08:53:55.393Z,69.24
2019-03-22T08:58:58.335Z,69.17
2019-03-22T09:04:02.672Z,68.31
2019-03-22T09:09:07.884Z,67.87
2019-03-22T09:14:12.270Z,67.30
2019-03-22T09:19:16.604Z,66.35
2019-03-22T09:24:21.002Z,66.44
2019-03-22T09:29:25.401Z,66.40
2019-03-22T09:34:34.008Z,66.72
2019-03-22T09:39:35.904Z,65.77
2019-03-22T09:44:44.459Z,65.34
2019-03-22T09:49:46.349Z,65.04
2019-03-22T09:54:50.741Z,64.67
2019-03-22T09:59:55.122Z,64.19
2019-03-22T10:04:59.476Z,63.77
2019-03-22T10:10:06.455Z,63.66
2019-03-22T10:15:10.847Z,63.74
2019-03-22T10:20:15.412Z,64.82
2019-03-22T10:25:19.823Z,65.27
2019-03-22T10:30:24.158Z,64.86
2019-03-22T10:35:28.550Z,64.35
2019-03-22T10:40:32.939Z,64.06
2019-03-22T10:45:37.399Z,63.96
2019-03-22T10:50:41.840Z,64.15
2019-03-22T10:55:46.249Z,63.96
2019-03-22T11:00:50.609Z,64.02
2019-03-22T11:05:54.991Z,63.85
2019-03-22T11:10:59.351Z,63.85
2019-03-22T11:16:04.064Z,63.82
2019-03-22T11:21:08.554Z,63.72
2019-03-22T11:26:13.035Z,63.20
2019-03-22T11:31:17.411Z,62.84
2019-03-22T11:36:21.837Z,62.13
2019-03-22T11:41:26.239Z,62.67
2019-03-22T11:46:31.145Z,61.54
2019-03-22T11:51:36.181Z,60.42
2019-03-22T11:56:40.569Z,61.47
2019-03-22T12:01:44.913Z,61.93
2019-03-22T12:06:49.420Z,61.30
2019-03-22T12:11:53.748Z,61.24
2019-03-22T12:16:58.172Z,61.48
2019-03-22T12:22:03.635Z,60.69
2019-03-22T12:27:08.082Z,60.86
2019-03-22T12:32:12.445Z,59.84
2019-03-22T12:37:16.835Z,61.28
2019-03-22T12:42:21.221Z,59.68
2019-03-22T12:47:25.643Z,58.71
2019-03-22T12:52:31.384Z,59.24
2019-03-22T12:57:35.850Z,59.04
2019-03-22T13:02:42.478Z,59.04
2019-03-22T13:07:46.696Z,58.95
2019-03-22T13:12:51.157Z,58.26
2019-03-22T13:17:56.029Z,58.10
2019-03-22T13:23:00.409Z,58.51
2019-03-22T13:28:04.777Z,58.91
2019-03-22T13:33:09.152Z,58.11
2019-03-22T13:38:13.554Z,58.49
2019-03-22T13:43:18.012Z,58.19
2019-03-22T13:48:22.474Z,58.39
2019-03-22T13:53:26.846Z,58.08
2019-03-22T13:58:31.235Z,58.55
2019-03-22T14:03:35.594Z,58.73
2019-03-22T14:08:39.977Z,59.07
2019-03-22T14:13:44.335Z,59.59
2019-03-22T14:18:48.730Z,57.08
2019-03-22T14:23:53.085Z,59.06
2019-03-22T14:28:57.470Z,59.14
2019-03-22T14:34:01.834Z,57.65
2019-03-22T14:39:08.456Z,57.40
2019-03-22T14:44:12.842Z,57.32
2019-03-22T14:49:17.210Z,58.15
2019-03-22T14:54:21.629Z,57.93
2019-03-22T14:59:26.069Z,56.36
2019-03-22T15:04:30.417Z,56.26
2019-03-22T15:09:34.799Z,56.51
2019-03-22T15:14:49.558Z,58.38
2019-03-22T15:20:07.683Z,56.51
2019-03-22T15:25:29.969Z,56.91
2019-03-22T15:30:38.920Z,57.98
2019-03-22T15:35:51.182Z,56.44
2019-03-22T15:40:58.528Z,56.55
2019-03-22T15:46:02.951Z,56.05
2019-03-22T15:51:07.396Z,55.51
2019-03-22T15:56:11.746Z,57.23
2019-03-22T16:01:16.293Z,58.23
2019-03-22T16:06:20.964Z,55.89
2019-03-22T16:11:25.300Z,59.02
2019-03-22T16:16:29.678Z,59.54
2019-03-22T16:21:34.083Z,60.23
2019-03-22T16:26:38.474Z,60.40
2019-03-22T16:31:42.894Z,61.33
2019-03-22T16:36:47.239Z,59.69
2019-03-22T16:41:51.679Z,61.32
2019-03-22T16:46:56.064Z,61.75
2019-03-22T16:52:00.449Z,61.62
2019-03-22T16:57:04.906Z,62.31
2019-03-22T17:02:09.294Z,62.29
2019-03-22T17:07:13.636Z,63.02
2019-03-22T17:12:18.034Z,63.48
2019-03-22T17:17:22.404Z,63.95
2019-03-22T17:22:26.811Z,64.33
2019-03-22T17:27:31.182Z,65.18
2019-03-22T17:32:35.530Z,64.81
2019-03-22T17:37:39.910Z,64.87
2019-03-22T17:42:44.346Z,65.37
2019-03-22T17:47:54.051Z,65.31
2019-03-22T17:52:58.841Z,65.19
2019-03-22T17:58:03.654Z,64.69
2019-03-22T18:03:08.092Z,64.31
2019-03-22T18:08:12.469Z,64.79
2019-03-22T18:13:17.062Z,65.03
2019-03-22T18:18:21.479Z,64.61
2019-03-22T18:23:35.502Z,65.02
2019-03-22T18:28:33.441Z,65.69
2019-03-22T18:33:37.836Z,65.68
2019-03-22T18:38:42.325Z,65.82
2019-03-22T18:43:46.768Z,66.04
2019-03-22T18:48:51.174Z,66.41
2019-03-22T18:53:55.557Z,66.61
2019-03-22T18:59:00.995Z,66.99
2019-03-22T19:04:05.476Z,67.25
2019-03-22T19:09:10.017Z,67.71
2019-03-22T19:14:14.447Z,68.30
2019-03-22T19:19:18.801Z,68.39
2019-03-22T19:24:23.350Z,68.73
2019-03-22T19:29:27.769Z,69.10
2019-03-22T19:34:32.117Z,69.33
2019-03-22T19:39:36.659Z,70.46
2019-03-22T19:44:41.049Z,70.28
2019-03-22T19:49:45.544Z,71.55
2019-03-22T19:54:50.009Z,72.57
2019-03-22T19:59:54.447Z,73.10
2019-03-22T20:05:04.726Z,73.56
2019-03-22T20:10:11.545Z,72.74
2019-03-22T20:15:15.925Z,72.56
2019-03-22T20:20:20.273Z,73.62
2019-03-22T20:25:24.640Z,75.41
2019-03-22T20:30:29.038Z,75.58
2019-03-22T20:35:33.412Z,75.03
2019-03-22T20:40:37.789Z,77.34
2019-03-22T20:45:42.152Z,78.06
2019-03-22T20:50:46.600Z,78.16
2019-03-22T20:55:51.027Z,78.22
2019-03-22T21:00:55.404Z,79.38
2019-03-22T21:06:00.089Z,78.92
2019-03-22T21:11:04.707Z,79.29
2019-03-22T21:16:09.286Z,78.98
2019-03-22T21:21:13.741Z,81.12
2019-03-22T21:26:18.101Z,80.50
2019-03-22T21:31:22.464Z,80.53
2019-03-22T21:36:30.081Z,81.17
2019-03-22T21:41:34.450Z,81.06
2019-03-22T21:46:38.854Z,81.20
2019-03-22T21:51:43.616Z,80.94
2019-03-22T21:56:48.069Z,80.93
2019-03-22T22:01:52.485Z,82.73
2019-03-22T22:06:56.967Z,83.54
2019-03-22T22:12:01.428Z,83.77
2019-03-22T22:17:06.056Z,84.72
2019-03-22T22:22:10.735Z,83.91
2019-03-22T22:27:15.186Z,85.21
2019-03-22T22:32:19.638Z,85.49
2019-03-22T22:37:24.599Z,85.96
2019-03-22T22:42:29.384Z,85.76
2019-03-22T22:47:35.504Z,86.64
2019-03-22T22:52:42.675Z,86.90
2019-03-22T22:57:47.078Z,85.99
2019-03-22T23:02:51.611Z,85.93
2019-03-22T23:07:57.216Z,86.20
2019-03-22T23:13:01.734Z,87.30
2019-03-22T23:18:06.427Z,85.75
2019-03-22T23:23:10.885Z,86.63
2019-03-22T23:28:15.405Z,85.99
2019-03-22T23:33:20.998Z,87.32
2019-03-22T23:38:27.143Z,87.96
2019-03-22T23:43:31.601Z,87.28
2019-03-22T23:48:36.047Z,88.14
2019-03-22T23:53:40.507Z,88.48
2019-03-22T23:58:45.061Z,88.60
